Time;durP1;ratioP1;P1;durP2;ratioP2;P2;SDS_P1;SDS_P2;PMS_P1;PMS_P2;Temp;Humidity;BMP_temperature;BMP_pressure;BME280_temperature;BME280_humidity;BME280_pressure;Samples;Min_cycle;Max_cycle;Signal;HPM_P1;HPM_P2
2024/02/21 00:00:46;;;;;;;5.00;4.40;;;;;;;5.84;57.31;94478.09;5050890;28;20036;-74
2024/02/21 00:03:11;;;;;;;4.47;4.03;;;;;;;5.72;57.67;94485.50;5051264;28;20559;-74
2024/02/21 00:05:37;;;;;;;4.72;4.30;;;;;;;5.57;57.95;94461.78;5051480;28;20554;-74
2024/02/21 00:08:06;;;;;;;5.68;4.68;;;;;;;5.51;58.20;94460.97;5050965;28;20033;-74
2024/02/21 00:10:35;;;;;;;5.75;4.45;;;;;;;5.74;57.60;94474.66;5051025;28;20036;-74
2024/02/21 00:13:00;;;;;;;5.85;4.75;;;;;;;5.68;57.74;94471.22;5051025;28;20033;-74
2024/02/21 00:15:26;;;;;;;6.53;4.72;;;;;;;5.38;58.41;94458.09;5050815;28;20452;-74
2024/02/21 00:17:51;;;;;;;6.53;4.80;;;;;;;5.45;58.67;94477.84;5050675;28;20033;-74
2024/02/21 00:20:17;;;;;;;5.70;4.25;;;;;;;5.47;58.03;94453.88;5051196;28;20037;-74
2024/02/21 00:22:43;;;;;;;7.88;6.05;;;;;;;5.32;59.09;94469.69;5032992;28;20039;-74
2024/02/21 00:25:08;;;;;;;5.45;4.38;;;;;;;5.35;58.91;94466.50;5050575;28;20044;-74
2024/02/21 00:27:34;;;;;;;5.82;5.00;;;;;;;5.23;59.17;94450.19;5050724;28;20517;-74
2024/02/21 00:29:59;;;;;;;4.85;4.30;;;;;;;5.57;58.45;94464.41;5050963;28;20021;-74
2024/02/21 00:32:24;;;;;;;5.10;4.25;;;;;;;5.48;58.66;94471.28;5033380;28;20016;-74
2024/02/21 00:34:50;;;;;;;5.43;4.32;;;;;;;5.38;58.73;94461.50;5050639;28;20540;-74
2024/02/21 00:37:15;;;;;;;3.60;3.30;;;;;;;5.55;58.67;94475.22;5050750;28;20033;-74
2024/02/21 00:39:42;;;;;;;6.72;4.20;;;;;;;5.57;58.31;94461.78;5050034;28;20068;-74
2024/02/21 00:42:07;;;;;;;5.28;4.32;;;;;;;5.56;57.91;94449.63;5050756;28;20108;-74
2024/02/21 00:44:33;;;;;;;5.88;4.10;;;;;;;5.49;58.47;94462.28;5050596;28;20104;-74
2024/02/21 00:46:58;;;;;;;5.85;4.70;;;;;;;5.41;59.03;94465.47;5050665;28;20033;-74
2024/02/21 00:49:24;;;;;;;7.05;5.53;;;;;;;5.50;58.88;94458.59;5050858;28;20022;-74
2024/02/21 00:51:49;;;;;;;5.80;4.47;;;;;;;5.53;58.43;94458.06;5050753;28;20041;-74
2024/02/21 00:54:14;;;;;;;7.35;4.72;;;;;;;5.59;58.66;94451.72;5050729;28;20521;-74
2024/02/21 00:56:40;;;;;;;6.65;4.43;;;;;;;5.75;58.07;94453.28;5050804;28;20020;-74
2024/02/21 00:59:05;;;;;;;6.13;4.70;;;;;;;5.73;57.88;94433.47;5050227;28;20036;-74
2024/02/21 01:01:30;;;;;;;6.07;5.05;;;;;;;5.74;57.51;94451.69;5050539;28;20071;-74
2024/02/21 01:03:56;;;;;;;5.80;4.97;;;;;;;5.85;57.42;94442.72;5032821;28;20448;-74
2024/02/21 01:06:21;;;;;;;5.82;5.10;;;;;;;5.99;57.50;94438.44;5050375;28;20029;-74
2024/02/21 01:08:47;;;;;;;5.88;4.43;;;;;;;6.02;57.06;94423.13;5050736;28;20028;-74
2024/02/21 01:11:13;;;;;;;8.60;5.70;;;;;;;6.11;56.47;94432.88;5050602;28;20025;-74
2024/02/21 01:13:39;;;;;;;7.45;5.50;;;;;;;6.15;56.55;94428.63;5050255;28;20037;-74
2024/02/21 01:16:06;;;;;;;8.77;6.68;;;;;;;5.98;56.21;94399.09;5032732;28;20406;-74
2024/02/21 01:18:31;;;;;;;6.95;5.55;;;;;;;6.14;56.29;94426.25;5049957;28;20422;-74
2024/02/21 01:20:57;;;;;;;7.40;5.82;;;;;;;5.80;56.06;94374.09;5050395;28;20023;-74
2024/02/21 01:23:22;;;;;;;6.18;4.78;;;;;;;6.05;56.38;94433.16;5050902;28;20427;-74
2024/02/21 01:25:48;;;;;;;6.68;5.18;;;;;;;6.24;55.77;94429.69;5032375;28;20043;-74
2024/02/21 01:28:13;;;;;;;4.55;4.15;;;;;;;6.04;55.49;94413.06;5050176;28;20118;-74
2024/02/21 01:30:38;;;;;;;6.18;4.50;;;;;;;5.79;56.24;94413.94;5050266;28;20509;-74
2024/02/21 01:33:04;;;;;;;6.28;4.53;;;;;;;5.76;55.98;94407.38;5050089;28;20021;-74
2024/02/21 01:35:29;;;;;;;6.07;4.85;;;;;;;5.73;56.29;94426.34;5050489;28;20041;-74
2024/02/21 01:37:54;;;;;;;7.40;6.07;;;;;;;5.56;57.03;94418.75;5050066;28;20115;-74
2024/02/21 01:40:20;;;;;;;7.82;6.05;;;;;;;5.57;57.26;94414.28;5050309;28;20052;-74
2024/02/21 01:42:47;;;;;;;11.55;8.10;;;;;;;5.72;56.53;94422.16;5053875;28;20394;-74
2024/02/21 01:45:13;;;;;;;8.85;7.32;;;;;;;5.75;56.40;94416.34;5053641;28;20087;-74
2024/02/21 01:47:38;;;;;;;9.05;6.93;;;;;;;5.77;56.25;94411.59;5054115;28;20420;-74
2024/02/21 01:50:04;;;;;;;11.00;7.88;;;;;;;5.50;57.01;94411.09;5053428;28;20086;-74
2024/02/21 01:52:30;;;;;;;13.82;8.48;;;;;;;5.20;56.42;94351.28;5053864;28;20409;-74
2024/02/21 01:54:57;;;;;;;14.40;8.55;;;;;;;5.51;56.50;94404.78;5035510;28;20056;-74
2024/02/21 01:57:23;;;;;;;11.52;8.63;;;;;;;5.37;56.60;94409.81;5053510;28;20579;-74
2024/02/21 01:59:49;;;;;;;12.48;9.07;;;;;;;5.41;56.54;94410.06;5053386;28;20033;-73
2024/02/21 02:02:16;;;;;;;14.00;9.70;;;;;;;5.32;56.46;94390.56;5053962;28;20537;-74
2024/02/21 02:04:42;;;;;;;12.68;9.13;;;;;;;5.15;56.98;94390.81;5053523;28;20106;-74
2024/02/21 02:07:08;;;;;;;13.95;9.75;;;;;;;5.35;56.15;94392.66;5053076;28;20067;-74
2024/02/21 02:09:33;;;;;;;13.35;9.15;;;;;;;5.30;56.51;94408.50;5035362;28;20536;-74
2024/02/21 02:12:00;;;;;;;13.05;9.85;;;;;;;5.21;56.79;94394.25;5053285;28;20024;-73
2024/02/21 02:14:25;;;;;;;14.35;9.25;;;;;;;5.45;56.12;94397.91;5053567;28;20467;-74
2024/02/21 02:16:51;;;;;;;14.77;9.80;;;;;;;5.37;56.25;94372.09;5053045;28;20041;-74
2024/02/21 02:19:16;;;;;;;13.70;9.70;;;;;;;5.46;56.43;94391.59;5052805;28;20120;-74
2024/02/21 02:21:47;;;;;;;14.63;10.40;;;;;;;5.52;55.97;94395.81;5052905;28;20037;-74
2024/02/21 02:24:14;;;;;;;14.18;10.50;;;;;;;5.56;56.27;94381.03;5052940;28;20036;-74
2024/02/21 02:26:39;;;;;;;15.05;9.77;;;;;;;5.77;55.31;94382.56;5053519;28;20036;-74
2024/02/21 02:29:05;;;;;;;15.00;10.25;;;;;;;5.73;55.64;94389.41;5052895;28;20108;-74
2024/02/21 02:31:30;;;;;;;13.93;10.52;;;;;;;5.74;55.64;94383.06;5052840;28;20061;-74
2024/02/21 02:33:56;;;;;;;18.65;11.82;;;;;;;5.80;55.46;94395.22;5052751;28;20098;-74
2024/02/21 02:36:21;;;;;;;15.52;11.75;;;;;;;5.55;55.33;94339.84;5053084;28;20460;-74
2024/02/21 02:38:46;;;;;;;15.38;10.35;;;;;;;5.77;55.34;94387.84;5052958;28;20029;-73
2024/02/21 02:41:12;;;;;;;15.65;10.98;;;;;;;5.56;55.48;94373.09;5052656;28;20033;-74
2024/02/21 02:43:37;;;;;;;14.80;11.30;;;;;;;5.77;55.41;94382.56;5052461;28;20052;-74
2024/02/21 02:46:03;;;;;;;14.48;10.77;;;;;;;5.58;55.24;94384.97;5052668;28;20060;-74
2024/02/21 02:48:29;;;;;;;13.57;9.57;;;;;;;5.71;55.21;94388.91;5052911;28;20139;-74
2024/02/21 02:50:55;;;;;;;14.93;10.70;;;;;;;5.45;55.57;94387.38;5052513;28;20028;-73
2024/02/21 02:53:20;;;;;;;15.18;11.32;;;;;;;5.33;56.03;94371.06;5052894;28;20143;-74
2024/02/21 02:55:45;;;;;;;16.25;11.02;;;;;;;5.45;55.64;94390.81;5052460;28;20037;-74
2024/02/21 02:58:11;;;;;;;15.57;10.98;;;;;;;5.49;56.08;94391.84;5052282;28;20386;-74
2024/02/21 03:00:36;;;;;;;15.93;11.05;;;;;;;5.23;56.12;94361.31;5052089;28;20128;-74
2024/02/21 03:03:05;;;;;;;16.75;11.00;;;;;;;5.50;55.93;94387.34;5052282;28;20112;-74
2024/02/21 03:05:30;;;;;;;13.60;10.40;;;;;;;5.50;55.62;94382.09;5052699;28;20049;-74
2024/02/21 03:07:56;;;;;;;14.52;10.77;;;;;;;5.47;56.14;94387.91;5052219;28;20037;-74
2024/02/21 03:10:22;;;;;;;16.25;10.32;;;;;;;5.51;56.08;94388.94;5051873;28;20124;-74
2024/02/21 03:12:47;;;;;;;18.00;12.00;;;;;;;5.68;55.79;94392.06;5052026;28;20198;-74
2024/02/21 03:15:13;;;;;;;15.02;10.20;;;;;;;5.66;55.50;94394.19;5052141;28;20032;-74
2024/02/21 03:17:40;;;;;;;16.30;11.20;;;;;;;5.42;55.35;94374.72;5052159;28;20048;-74
2024/02/21 03:20:09;;;;;;;16.83;10.95;;;;;;;5.35;55.74;94390.03;5051933;28;20029;-74
2024/02/21 03:22:35;;;;;;;19.00;11.98;;;;;;;5.72;55.57;94408.97;5051841;28;20094;-74
2024/02/21 03:25:01;;;;;;;16.98;11.73;;;;;;;5.84;54.54;94398.88;5051545;28;20040;-74
2024/02/21 03:27:26;;;;;;;19.27;11.85;;;;;;;5.69;54.82;94393.66;5051612;28;20032;-74
2024/02/21 03:29:52;;;;;;;13.35;10.88;;;;;;;5.91;54.54;94404.69;5051853;28;20035;-74
2024/02/21 03:32:17;;;;;;;14.48;10.95;;;;;;;5.87;54.19;94416.06;5052427;28;20028;-74
2024/02/21 03:34:42;;;;;;;16.38;11.55;;;;;;;5.79;54.88;94412.09;5051563;28;20501;-74
2024/02/21 03:37:08;;;;;;;14.15;11.02;;;;;;;5.65;54.77;94411.09;5034107;28;20116;-74
2024/02/21 03:39:33;;;;;;;15.18;11.18;;;;;;;5.67;54.91;94413.47;5051139;28;20041;-74
2024/02/21 03:42:04;;;;;;;14.77;11.27;;;;;;;5.65;54.51;94389.19;5051267;28;20056;-74
2024/02/21 03:44:30;;;;;;;16.95;10.70;;;;;;;5.82;53.99;94416.84;5051977;28;20032;-74
2024/02/21 03:46:56;;;;;;;17.77;12.20;;;;;;;5.79;54.33;94422.66;5051181;28;20036;-74
2024/02/21 03:49:22;;;;;;;15.52;10.48;;;;;;;5.91;54.12;94420.53;5051582;28;20035;-74
2024/02/21 03:51:47;;;;;;;14.50;10.65;;;;;;;5.85;53.81;94418.16;5051379;28;20040;-74
2024/02/21 03:54:13;;;;;;;15.40;11.65;;;;;;;5.97;53.60;94416.00;5051532;28;20037;-74
2024/02/21 03:56:39;;;;;;;15.68;10.90;;;;;;;5.83;53.71;94421.06;5051896;28;20028;-74
2024/02/21 03:59:08;;;;;;;14.68;11.73;;;;;;;5.80;54.07;94408.41;5051178;28;20056;-74
2024/02/21 04:01:36;;;;;;;18.67;11.50;;;;;;;5.91;53.62;94399.41;5050858;28;20037;-74
2024/02/21 04:04:02;;;;;;;18.38;11.43;;;;;;;6.01;53.68;94422.34;5050481;28;20116;-74
2024/02/21 04:06:27;;;;;;;20.48;12.95;;;;;;;5.93;53.90;94418.41;5051053;28;20116;-74
2024/02/21 04:08:53;;;;;;;18.13;11.73;;;;;;;5.80;53.97;94403.13;5051047;28;20024;-74
2024/02/21 04:11:18;;;;;;;17.17;11.98;;;;;;;6.02;53.85;94409.94;5051625;28;20378;-74
2024/02/21 04:13:49;;;;;;;19.02;12.93;;;;;;;6.02;53.72;94413.34;5051041;28;20032;-74
2024/02/21 04:16:15;;;;;;;16.73;12.07;;;;;;;6.03;53.35;94412.28;5051134;28;20045;-74
2024/02/21 04:18:41;;;;;;;18.95;11.57;;;;;;;5.93;53.87;94410.47;5050690;28;20048;-74
2024/02/21 04:21:06;;;;;;;18.65;12.68;;;;;;;6.05;53.43;94404.91;5051071;28;20104;-74
2024/02/21 04:23:32;;;;;;;15.90;10.88;;;;;;;6.00;53.66;94403.06;5051259;28;20027;-74
2024/02/21 04:25:57;;;;;;;18.70;10.77;;;;;;;6.20;53.02;94409.34;5051141;28;20062;-74
2024/02/21 04:28:22;;;;;;;16.40;11.82;;;;;;;6.21;52.74;94393.25;5050317;28;20037;-74
2024/02/21 04:30:48;;;;;;;17.05;10.23;;;;;;;6.18;52.94;94419.41;5050833;28;20033;-75
2024/02/21 04:33:13;;;;;;;15.38;11.05;;;;;;;6.09;53.15;94413.84;5050949;28;20392;-75
2024/02/21 04:35:39;;;;;;;18.20;12.13;;;;;;;6.05;53.00;94410.19;5051388;28;20025;-75
2024/02/21 04:38:04;;;;;;;15.75;10.75;;;;;;;6.08;52.81;94419.41;5050540;28;20518;-74
2024/02/21 04:40:30;;;;;;;14.82;11.32;;;;;;;6.04;52.54;94407.78;5050526;28;20534;-74
2024/02/21 04:42:56;;;;;;;15.45;10.55;;;;;;;5.96;52.85;94415.22;5050657;28;20464;-74
2024/02/21 04:45:22;;;;;;;13.77;11.18;;;;;;;6.10;52.65;94422.56;5050725;28;20057;-75
2024/02/21 04:47:47;;;;;;;15.65;11.30;;;;;;;6.05;52.39;94419.94;5051280;28;20059;-74
2024/02/21 04:50:12;;;;;;;15.52;11.27;;;;;;;5.80;52.28;94379.38;5050389;28;20040;-74
2024/02/21 04:52:38;;;;;;;13.77;10.40;;;;;;;6.06;52.36;94427.59;5050331;28;20697;-74
2024/02/21 04:55:04;;;;;;;13.65;10.90;;;;;;;6.16;52.11;94417.03;5032661;28;20042;-74
2024/02/21 04:57:29;;;;;;;16.55;11.18;;;;;;;6.13;51.96;94424.66;5050899;28;20445;-74
2024/02/21 04:59:54;;;;;;;14.90;11.45;;;;;;;6.11;51.84;94398.53;5050780;28;20112;-74
2024/02/21 05:02:22;;;;;;;15.27;10.95;;;;;;;6.26;51.45;94405.66;5051296;28;20474;-74
2024/02/21 05:04:47;;;;;;;16.70;11.80;;;;;;;6.36;51.12;94410.88;5032682;28;20041;-75
2024/02/21 05:07:13;;;;;;;13.88;10.82;;;;;;;5.93;51.19;94360.31;5049907;28;20061;-74
2024/02/21 05:09:38;;;;;;;17.73;12.15;;;;;;;6.33;51.37;94424.63;5032223;28;20063;-75
2024/02/21 05:12:04;;;;;;;18.33;11.90;;;;;;;6.42;51.10;94422.97;5050965;28;20029;-74
2024/02/21 05:14:29;;;;;;;16.50;11.50;;;;;;;6.24;50.64;94429.69;5051118;28;20021;-74
2024/02/21 05:16:55;;;;;;;13.40;10.00;;;;;;;6.14;50.99;94428.88;5053225;28;20037;-74
2024/02/21 05:19:20;;;;;;;13.65;10.35;;;;;;;5.97;50.98;94423.91;5054294;28;20029;-75
2024/02/21 05:21:45;;;;;;;13.15;10.38;;;;;;;6.08;50.50;94406.19;5053866;28;20401;-75
2024/02/21 05:24:11;;;;;;;17.13;10.77;;;;;;;5.94;51.06;94429.75;5054056;28;20036;-74
2024/02/21 05:26:36;;;;;;;14.02;10.65;;;;;;;5.90;51.58;94434.00;5054847;28;20112;-75
2024/02/21 05:29:02;;;;;;;12.52;9.43;;;;;;;5.81;51.81;94420.56;5054138;28;20033;-75
2024/02/21 05:31:54;;;;;;;15.57;11.15;;;;;;;5.72;52.21;94424.81;5053791;28;20053;-74
2024/02/21 05:34:20;;;;;;;16.13;10.95;;;;;;;5.71;52.65;94433.78;5053045;28;20063;-75
2024/02/21 05:36:46;;;;;;;14.73;10.98;;;;;;;5.69;52.81;94427.97;5053855;28;20125;-75
2024/02/21 05:39:12;;;;;;;17.65;10.98;;;;;;;5.68;53.01;94434.28;5053865;28;20049;-75
2024/02/21 05:41:37;;;;;;;15.40;11.75;;;;;;;5.49;52.67;94386.56;5054681;28;20506;-75
2024/02/21 05:44:02;;;;;;;15.35;11.60;;;;;;;5.90;52.77;94445.34;5053842;28;20528;-75
2024/02/21 05:46:28;;;;;;;17.17;13.13;;;;;;;5.68;52.86;94429.00;5053588;28;20037;-74
2024/02/21 05:48:54;;;;;;;17.27;11.27;;;;;;;5.64;53.65;94425.31;5053722;28;20120;-75
2024/02/21 05:51:19;;;;;;;20.00;13.65;;;;;;;5.68;53.58;94439.56;5053670;28;20053;-74
2024/02/21 05:53:44;;;;;;;15.70;11.07;;;;;;;5.40;53.86;94422.47;5054153;28;20500;-75
2024/02/21 05:56:11;;;;;;;16.08;11.52;;;;;;;5.71;53.43;94452.25;5053149;28;20044;-75
2024/02/21 05:58:37;;;;;;;18.58;12.45;;;;;;;5.67;53.80;94451.19;5035724;28;20140;-74
2024/02/21 06:01:03;;;;;;;16.17;11.95;;;;;;;5.68;53.22;94447.47;5053337;28;20394;-75
2024/02/21 06:03:29;;;;;;;18.52;12.35;;;;;;;5.39;53.73;94443.81;5035333;28;20033;-75
2024/02/21 06:05:54;;;;;;;20.70;11.93;;;;;;;5.45;53.83;94450.69;5053280;28;20032;-74
2024/02/21 06:08:20;;;;;;;15.57;10.70;;;;;;;5.59;53.74;94451.72;5053983;28;20021;-75
2024/02/21 06:10:46;;;;;;;16.63;11.40;;;;;;;5.51;53.73;94452.28;5053434;28;20142;-75
2024/02/21 06:13:11;;;;;;;20.35;12.43;;;;;;;5.41;54.13;94462.81;5053301;28;20033;-75
2024/02/21 06:15:36;;;;;;;18.27;12.27;;;;;;;5.40;54.62;94466.50;5053220;28;20651;-75
2024/02/21 06:18:02;;;;;;;19.83;12.07;;;;;;;5.33;54.88;94466.81;5052593;28;20029;-74
2024/02/21 06:20:27;;;;;;;19.48;12.90;;;;;;;5.40;55.03;94466.50;5053786;28;20021;-74
2024/02/21 06:22:53;;;;;;;19.10;12.13;;;;;;;5.40;55.14;94466.50;5052864;28;20033;-74
2024/02/21 06:25:19;;;;;;;19.73;13.40;;;;;;;5.76;54.29;94470.72;5053207;28;20128;-75
2024/02/21 06:27:44;;;;;;;18.65;12.80;;;;;;;5.89;53.96;94475.44;5052533;28;20043;-74
2024/02/21 06:30:10;;;;;;;18.38;13.73;;;;;;;5.93;53.69;94465.91;5052736;28;20056;-75
2024/02/21 06:32:35;;;;;;;17.75;12.68;;;;;;;5.88;53.53;94458.00;5052878;28;20623;-75
2024/02/21 06:35:01;;;;;;;21.27;13.45;;;;;;;5.89;53.95;94480.72;5052578;28;20057;-75
2024/02/21 06:37:27;;;;;;;17.67;11.88;;;;;;;6.00;54.21;94479.63;5052675;28;20029;-75
2024/02/21 06:39:53;;;;;;;21.38;14.57;;;;;;;5.96;53.70;94480.44;5052438;28;20037;-74
2024/02/21 06:42:18;;;;;;;22.17;14.60;;;;;;;5.88;53.81;94467.78;5052058;28;20032;-76
2024/02/21 06:44:46;;;;;;;17.65;13.02;;;;;;;6.06;54.11;94479.63;5052796;28;20044;-75
2024/02/21 06:47:11;;;;;;;17.35;13.32;;;;;;;6.09;53.69;94489.66;5050551;28;20058;-75
2024/02/21 06:49:37;;;;;;;21.30;14.38;;;;;;;6.31;53.54;94498.84;5050284;28;20033;-76
2024/02/21 06:52:04;;;;;;;19.40;12.65;;;;;;;6.26;53.04;94482.25;5051007;28;20044;-75
2024/02/21 06:54:30;;;;;;;21.08;13.65;;;;;;;6.13;53.52;94496.75;5053489;28;20040;-73
2024/02/21 06:56:55;;;;;;;18.88;13.57;;;;;;;5.97;54.00;94503.94;5036325;28;20017;-75
2024/02/21 06:59:21;;;;;;;19.75;13.13;;;;;;;5.92;54.08;94484.69;5052122;28;20116;-75
2024/02/21 07:01:48;;;;;;;17.70;12.60;;;;;;;5.82;53.81;94467.00;5051516;28;20035;-76
2024/02/21 07:04:14;;;;;;;21.70;13.73;;;;;;;6.07;53.67;94481.22;5051661;28;20036;-75
2024/02/21 07:06:40;;;;;;;19.13;12.82;;;;;;;6.06;54.30;94474.34;5050971;28;20129;-75
2024/02/21 07:09:05;;;;;;;23.15;13.60;;;;;;;6.04;54.59;94502.88;5051330;28;20068;-75
2024/02/21 07:11:31;;;;;;;20.00;12.88;;;;;;;6.07;54.36;94500.47;5052038;28;20070;-76
2024/02/21 07:13:56;;;;;;;21.70;14.27;;;;;;;5.88;54.93;94500.25;5051290;28;20033;-75
2024/02/21 07:16:21;;;;;;;20.48;12.88;;;;;;;5.89;54.86;94480.72;5051381;28;20463;-75
2024/02/21 07:18:47;;;;;;;20.58;12.85;;;;;;;6.00;54.70;94503.41;5051103;28;20085;-76
2024/02/21 07:21:12;;;;;;;19.27;13.40;;;;;;;6.11;54.66;94503.38;5050601;28;20063;-75
2024/02/21 07:23:43;;;;;;;21.38;14.48;;;;;;;6.13;54.48;94506.53;5033612;28;20021;-75
2024/02/21 07:26:09;;;;;;;20.33;14.00;;;;;;;6.05;54.56;94509.72;5051117;28;20047;-75
2024/02/21 07:28:34;;;;;;;20.58;13.65;;;;;;;5.63;54.66;94465.97;5050520;28;20036;-75
2024/02/21 07:31:00;;;;;;;22.38;14.32;;;;;;;6.06;54.10;94495.47;5051092;28;20087;-75
2024/02/21 07:33:25;;;;;;;21.85;13.13;;;;;;;6.04;54.56;94489.66;5050459;28;20044;-76
2024/02/21 07:35:51;;;;;;;23.27;14.77;;;;;;;5.60;55.26;94478.91;5050571;28;20112;-75
2024/02/21 07:38:18;;;;;;;26.27;16.42;;;;;;;5.93;55.09;94508.16;5050122;28;20021;-76
2024/02/21 07:40:46;;;;;;;22.15;15.32;;;;;;;5.87;55.32;94484.69;5050044;28;20041;-75
2024/02/21 07:43:11;;;;;;;19.13;13.27;;;;;;;5.89;55.11;94486.00;5050568;28;20044;-76
2024/02/21 07:45:38;;;;;;;19.25;13.57;;;;;;;5.78;55.37;94459.88;5050870;28;20033;-75
2024/02/21 07:48:03;;;;;;;21.88;14.57;;;;;;;6.02;54.65;94487.28;5050550;28;20036;-76
2024/02/21 07:50:29;;;;;;;20.92;14.95;;;;;;;6.19;54.94;94508.13;5051221;28;20021;-76
2024/02/21 07:52:54;;;;;;;22.17;14.63;;;;;;;6.09;54.51;94473.81;5050712;28;20035;-76
2024/02/21 07:55:19;;;;;;;21.85;13.75;;;;;;;6.26;54.53;94500.75;5050609;28;20068;-76
2024/02/21 07:57:45;;;;;;;18.30;12.27;;;;;;;6.46;53.73;94490.06;5050466;28;20037;-76
2024/02/21 08:00:17;;;;;;;19.85;13.20;;;;;;;6.61;53.70;94499.78;5050562;28;20045;-75
2024/02/21 08:02:43;;;;;;;23.13;14.13;;;;;;;6.44;53.72;94481.66;5050979;28;20017;-75
2024/02/21 08:05:09;;;;;;;18.90;14.32;;;;;;;6.25;54.73;94484.09;5050698;28;20076;-76
2024/02/21 08:07:34;;;;;;;21.27;13.50;;;;;;;6.62;53.94;94491.59;5050556;28;20029;-76
2024/02/21 08:09:59;;;;;;;21.75;15.23;;;;;;;6.74;54.09;94502.66;5050404;28;20029;-75
2024/02/21 08:12:25;;;;;;;22.50;15.52;;;;;;;6.76;53.75;94494.44;5050211;28;20044;-75
2024/02/21 08:14:50;;;;;;;20.33;14.02;;;;;;;6.88;53.43;94496.78;5050866;28;20569;-75
2024/02/21 08:17:16;;;;;;;18.50;13.40;;;;;;;6.90;53.51;94494.66;5051375;28;20039;-75
2024/02/21 08:19:41;;;;;;;20.40;13.85;;;;;;;6.80;53.13;94477.75;5050273;28;20502;-75
2024/02/21 08:22:06;;;;;;;20.65;13.50;;;;;;;7.00;53.06;94498.00;5050793;28;20548;-75
2024/02/21 08:24:32;;;;;;;18.52;13.30;;;;;;;6.75;53.21;94477.78;5050417;28;20041;-75
2024/02/21 08:26:57;;;;;;;20.23;13.80;;;;;;;6.84;52.88;94468.25;5050687;28;20112;-75
2024/02/21 08:29:23;;;;;;;19.10;12.98;;;;;;;6.98;52.46;94475.56;5050602;28;20048;-75
2024/02/21 08:31:48;;;;;;;18.77;12.25;;;;;;;7.01;51.81;94493.50;5050225;28;20108;-75
2024/02/21 08:34:13;;;;;;;18.75;13.05;;;;;;;6.78;51.49;94494.97;5050057;28;20506;-74
2024/02/21 08:36:39;;;;;;;17.70;11.73;;;;;;;6.71;51.15;94470.66;5049877;28;20578;-74
2024/02/21 08:39:04;;;;;;;18.33;11.20;;;;;;;6.92;50.99;94492.50;5049976;28;20064;-74
2024/02/21 08:41:33;;;;;;;15.25;10.77;;;;;;;7.11;49.60;94486.31;5050765;28;20611;-74
2024/02/21 08:43:59;;;;;;;17.95;10.30;;;;;;;7.07;50.37;94490.56;5050292;28;20037;-76
2024/02/21 08:46:25;;;;;;;14.70;9.93;;;;;;;6.89;50.03;94488.56;5050070;28;20025;-76
2024/02/21 08:48:51;;;;;;;13.82;10.35;;;;;;;6.71;50.32;94466.19;5050275;28;20429;-76
2024/02/21 08:51:17;;;;;;;13.55;10.18;;;;;;;7.03;50.27;94494.03;5053406;28;20029;-76
2024/02/21 08:53:43;;;;;;;15.82;10.43;;;;;;;7.09;50.14;94485.78;5036888;28;20390;-76
2024/02/21 08:56:09;;;;;;;13.40;9.45;;;;;;;6.86;50.19;94428.28;5054147;28;20041;-76
2024/02/21 08:58:39;;;;;;;15.40;10.68;;;;;;;7.16;50.14;94501.34;5053825;28;20043;-76
2024/02/21 09:01:05;;;;;;;15.57;11.25;;;;;;;6.93;50.83;94499.38;5053527;28;20072;-76
2024/02/21 09:03:32;;;;;;;14.18;10.68;;;;;;;6.83;50.72;94474.59;5053601;28;20117;-76
2024/02/21 09:05:58;;;;;;;15.00;9.65;;;;;;;7.03;50.85;94483.47;5053925;28;20029;-75
2024/02/21 09:08:24;;;;;;;15.00;10.50;;;;;;;7.22;50.37;94497.63;5054245;28;20466;-76
2024/02/21 09:10:49;;;;;;;14.15;10.75;;;;;;;7.12;50.70;94493.19;5053423;28;20120;-75
2024/02/21 09:13:15;;;;;;;20.48;11.52;;;;;;;7.06;51.67;94504.06;5053341;28;20087;-76
2024/02/21 09:15:40;;;;;;;16.15;12.32;;;;;;;7.20;51.87;94499.72;5053409;28;20048;-76
2024/02/21 09:18:06;;;;;;;16.35;11.68;;;;;;;7.02;51.46;94495.09;5053890;28;20087;-75
2024/02/21 09:20:31;;;;;;;15.63;11.02;;;;;;;7.23;50.44;94500.00;5054129;28;20111;-75
2024/02/21 09:22:57;;;;;;;17.45;10.98;;;;;;;7.32;50.03;94500.19;5052249;28;20414;-75
2024/02/21 09:25:22;;;;;;;16.92;10.77;;;;;;;7.08;50.54;94492.16;5033223;28;20037;-76
2024/02/21 09:27:47;;;;;;;15.90;12.05;;;;;;;7.12;51.40;94487.09;5052288;28;20119;-76
2024/02/21 09:30:13;;;;;;;13.95;10.15;;;;;;;7.07;51.22;94490.56;5052808;28;20045;-75
2024/02/21 09:32:38;;;;;;;17.45;11.25;;;;;;;7.12;51.60;94497.69;5052836;28;20029;-76
2024/02/21 09:35:07;;;;;;;14.43;10.15;;;;;;;7.01;51.17;94496.16;5052017;28;20140;-79
2024/02/21 09:37:33;;;;;;;17.25;10.10;;;;;;;7.10;51.61;94486.56;5052499;28;20098;-76
2024/02/21 09:39:58;;;;;;;14.68;10.43;;;;;;;7.32;51.62;94492.25;5051601;28;20597;-76
2024/02/21 09:42:41;;;;;;;16.60;10.90;;;;;;;7.39;50.46;94491.94;5052208;28;20021;-76
2024/02/21 09:45:21;;;;;;;16.20;10.50;;;;;;;7.30;50.27;94497.03;5052138;28;20035;-76
2024/02/21 09:48:06;;;;;;;13.45;9.57;;;;;;;7.31;50.20;94501.25;5053132;28;20029;-76
2024/02/21 09:50:35;;;;;;;18.15;12.23;;;;;;;7.41;49.18;94472.06;5053369;28;20044;-75
2024/02/21 09:53:02;;;;;;;18.70;12.15;;;;;;;7.30;51.33;94484.59;5053104;28;20167;-76
2024/02/21 09:55:32;;;;;;;20.60;13.10;;;;;;;7.28;51.78;94492.03;5053264;28;20056;-76
2024/02/21 09:57:58;;;;;;;21.23;13.70;;;;;;;6.59;53.75;94491.38;5053132;28;20029;-75
2024/02/21 10:00:24;;;;;;;17.00;12.88;;;;;;;7.02;53.04;94493.25;5052760;28;20052;-76
2024/02/21 10:02:50;;;;;;;16.15;11.30;;;;;;;7.14;52.34;94492.91;5052563;28;20025;-74
2024/02/21 10:05:16;;;;;;;16.95;10.98;;;;;;;7.15;51.63;94476.75;5053823;28;20017;-75
2024/02/21 10:07:41;;;;;;;13.85;9.23;;;;;;;7.43;50.49;94485.84;5053145;28;20037;-76
2024/02/21 10:10:07;;;;;;;14.82;9.45;;;;;;;7.42;50.03;94476.31;5053058;28;20509;-76
2024/02/21 10:12:33;;;;;;;13.45;9.30;;;;;;;7.41;48.98;94484.50;5052811;28;20116;-76
2024/02/21 10:15:02;;;;;;;14.60;11.32;;;;;;;7.47;48.64;94481.56;5052994;28;20508;-76
2024/02/21 10:17:27;;;;;;;13.15;8.55;;;;;;;7.60;49.11;94490.72;5053481;28;20044;-75
2024/02/21 10:19:53;;;;;;;15.73;10.45;;;;;;;7.47;48.00;94436.56;5052686;28;20095;-76
2024/02/21 10:22:20;;;;;;;11.38;8.15;;;;;;;7.63;47.63;94488.28;5052422;28;20041;-75
2024/02/21 10:24:45;;;;;;;14.52;9.30;;;;;;;7.26;47.63;94414.78;5052642;28;20029;-75
2024/02/21 10:27:11;;;;;;;17.27;12.52;;;;;;;7.61;47.82;94473.78;5052687;28;20370;-75
2024/02/21 10:29:37;;;;;;;10.77;8.02;;;;;;;7.38;48.08;94438.25;5052938;28;20025;-75
2024/02/21 10:32:11;;;;;;;14.80;10.35;;;;;;;7.56;48.40;94465.88;5034434;28;20488;-73
2024/02/21 10:34:38;;;;;;;12.85;9.40;;;;;;;7.88;47.13;94457.38;5052070;28;20040;-73
2024/02/21 10:37:05;;;;;;;13.23;9.52;;;;;;;7.71;46.97;94455.94;5052227;28;20039;-75
2024/02/21 10:39:38;;;;;;;13.45;10.15;;;;;;;7.62;47.45;94447.03;5051830;28;20316;-75
2024/02/21 10:42:04;;;;;;;13.95;10.35;;;;;;;7.81;47.10;94439.19;5052625;28;20024;-73
2024/02/21 10:44:32;;;;;;;12.85;9.40;;;;;;;7.96;47.26;94433.75;5052623;28;20429;-75
2024/02/21 10:46:58;;;;;;;11.77;6.97;;;;;;;8.15;46.41;94407.31;5052615;28;20033;-74
2024/02/21 10:49:29;;;;;;;10.25;7.43;;;;;;;8.14;46.29;94413.66;5052048;28;20029;-75
2024/02/21 10:52:41;;;;;;;12.15;8.10;;;;;;;7.90;46.48;94397.00;5052240;28;20116;-74
2024/02/21 10:55:37;;;;;;;11.45;8.35;;;;;;;8.51;45.95;94408.44;4951499;29;20031;-75
2024/02/21 10:58:05;;;;;;;;;;;;;;;8.72;44.94;94395.69;4951141;29;20603;-75
2024/02/21 11:00:31;;;;;;;12.45;8.10;;;;;;;8.57;44.11;94404.63;5020039;28;20406;-75
2024/02/21 11:02:58;;;;;;;9.15;6.30;;;;;;;8.24;44.80;94381.75;5052173;28;20116;-75
2024/02/21 11:05:25;;;;;;;13.80;7.18;;;;;;;8.25;45.52;94393.94;5052540;28;20051;-75
2024/02/21 11:07:51;;;;;;;8.30;6.85;;;;;;;8.24;45.80;94365.84;5051333;28;20033;-75
2024/02/21 11:10:22;;;;;;;10.60;7.45;;;;;;;8.52;44.24;94341.09;5051320;28;20021;-73
2024/02/21 11:12:48;;;;;;;7.22;6.15;;;;;;;8.90;43.97;94386.94;5051203;28;20043;-75
2024/02/21 11:15:13;;;;;;;7.63;5.82;;;;;;;8.72;44.15;94377.13;5051508;28;20112;-75
2024/02/21 11:17:38;;;;;;;8.70;7.35;;;;;;;8.82;44.25;94384.16;5051928;28;20548;-75
2024/02/21 11:20:13;;;;;;;7.72;5.25;;;;;;;8.64;42.69;94379.63;5050997;28;20029;-76
2024/02/21 11:22:43;;;;;;;6.20;4.80;;;;;;;8.70;42.03;94384.59;5051639;28;20402;-73
2024/02/21 11:25:11;;;;;;;6.63;5.55;;;;;;;8.50;42.76;94390.19;5051366;28;20057;-75